Time;durP1;ratioP1;P1;durP2;ratioP2;P2;SDS_P1;SDS_P2;PMS_P1;PMS_P2;Temp;Humidity;BMP_temperature;BMP_pressure;BME280_temperature;BME280_humidity;BME280_pressure;Samples;Min_cycle;Max_cycle;Signal;HPM_P1;HPM_P2
2023/05/11 00:00:43;;;;;;;12.40;4.72;;;;;;;;;;5017294;28;20049;-25
2023/05/11 00:03:09;;;;;;;7.80;3.88;;;;;;;;;;5017304;28;20041;-25
2023/05/11 00:05:36;;;;;;;3.90;3.53;;;;;;;;;;5017605;28;20025;-25
2023/05/11 00:08:02;;;;;;;7.15;4.32;;;;;;;;;;5017271;28;20030;-25
2023/05/11 00:10:28;;;;;;;11.38;4.38;;;;;;;;;;5017269;28;20029;-25
2023/05/11 00:12:55;;;;;;;5.82;4.28;;;;;;;;;;5017311;28;20080;-25
2023/05/11 00:15:21;;;;;;;9.88;4.60;;;;;;;;;;5017140;28;20030;-25
2023/05/11 00:17:47;;;;;;;7.65;4.82;;;;;;;;;;5017146;28;20549;-25
2023/05/11 00:20:13;;;;;;;5.60;4.35;;;;;;;;;;5017090;28;20022;-25
2023/05/11 00:22:40;;;;;;;4.72;3.70;;;;;;;;;;5017234;28;20030;-25
2023/05/11 00:25:07;;;;;;;6.68;5.00;;;;;;;;;;5017237;28;20029;-25
2023/05/11 00:27:33;;;;;;;4.95;4.03;;;;;;;;;;5017491;28;20026;-25
2023/05/11 00:29:59;;;;;;;9.75;4.43;;;;;;;;;;5016901;28;20050;-25
2023/05/11 00:32:25;;;;;;;6.25;5.22;;;;;;;;;;5017206;28;20040;-25
2023/05/11 00:34:51;;;;;;;6.50;4.15;;;;;;;;;;5016739;28;20453;-25
2023/05/11 00:37:18;;;;;;;4.57;4.00;;;;;;;;;;5016687;28;20026;-25
2023/05/11 00:39:44;;;;;;;6.07;4.03;;;;;;;;;;5016737;28;20052;-25
2023/05/11 00:42:10;;;;;;;4.65;4.18;;;;;;;;;;5016571;28;20105;-25
2023/05/11 00:44:36;;;;;;;5.28;3.83;;;;;;;;;;5016613;28;20037;-25
2023/05/11 00:47:02;;;;;;;9.15;4.30;;;;;;;;;;5016808;28;20037;-25
2023/05/11 00:49:30;;;;;;;9.55;4.20;;;;;;;;;;5016500;28;20037;-25
2023/05/11 00:51:56;;;;;;;7.05;3.65;;;;;;;;;;5016645;28;20041;-25
2023/05/11 00:54:23;;;;;;;6.57;4.30;;;;;;;;;;5016869;28;20100;-25
2023/05/11 00:56:49;;;;;;;5.65;3.90;;;;;;;;;;5016397;28;20037;-25
2023/05/11 00:59:15;;;;;;;4.32;4.03;;;;;;;;;;5016606;28;20349;-25
2023/05/11 01:01:42;;;;;;;5.50;4.50;;;;;;;;;;5016348;28;20104;-25
2023/05/11 01:04:08;;;;;;;4.93;3.72;;;;;;;;;;5015985;28;20428;-25
2023/05/11 01:06:35;;;;;;;4.75;4.35;;;;;;;;;;5016252;28;20054;-25
2023/05/11 01:09:09;;;;;;;4.45;3.65;;;;;;;;;;5016094;28;20065;-25
2023/05/11 01:11:43;;;;;;;5.28;4.07;;;;;;;;;;5016489;28;20081;-25
2023/05/11 01:14:14;;;;;;;6.25;5.20;;;;;;;;;;5015366;28;20030;-25
2023/05/11 01:16:40;;;;;;;;;;;;;;;;;;5016484;28;20445;-25
2023/05/11 01:19:12;;;;;;;5.07;4.55;;;;;;;;;;5015968;28;19905;-25
2023/05/11 01:21:39;;;;;;;5.63;4.38;;;;;;;;;;5015939;28;20022;-25
2023/05/11 01:24:08;;;;;;;8.25;4.32;;;;;;;;;;5015817;28;20144;-25
2023/05/11 01:26:53;;;;;;;4.80;3.90;;;;;;;;;;5016128;28;20060;-25
2023/05/11 01:29:22;;;;;;;4.40;4.00;;;;;;;;;;5015833;28;20040;-25
2023/05/11 01:31:48;;;;;;;3.90;3.25;;;;;;;;;;5015672;28;20049;-25
2023/05/11 01:34:19;;;;;;;6.70;4.82;;;;;;;;;;5015675;28;20444;-25
2023/05/11 01:36:59;;;;;;;6.30;4.28;;;;;;;;;;5015698;28;20022;-25
2023/05/11 01:39:32;;;;;;;9.40;3.73;;;;;;;;;;5015939;28;20357;-25
2023/05/11 01:42:03;;;;;;;6.45;3.70;;;;;;;;;;5016055;28;20018;-25
2023/05/11 01:44:31;;;;;;;8.85;3.75;;;;;;;;;;5016434;28;20425;-25
2023/05/11 01:47:00;;;;;;;4.10;3.63;;;;;;;;;;5015759;28;20037;-25
2023/05/11 01:49:27;;;;;;;5.10;3.70;;;;;;;;;;5015665;28;20026;-25
2023/05/11 01:51:53;;;;;;;4.10;3.47;;;;;;;;;;5016104;28;20045;-25
2023/05/11 01:54:20;;;;;;;5.28;4.65;;;;;;;;;;5015327;28;20037;-25
2023/05/11 01:56:47;;;;;;;5.70;4.20;;;;;;;;;;5015312;28;20034;-25
2023/05/11 01:59:13;;;;;;;6.18;4.18;;;;;;;;;;5015508;28;20018;-25
2023/05/11 02:01:40;;;;;;;8.00;3.97;;;;;;;;;;5015290;28;20021;-25
2023/05/11 02:04:07;;;;;;;4.88;4.47;;;;;;;;;;5014966;28;20037;-25
2023/05/11 02:06:34;;;;;;;4.53;3.45;;;;;;;;;;4997903;28;20532;-25
2023/05/11 02:09:00;;;;;;;7.53;4.60;;;;;;;;;;5015421;28;20101;-25
2023/05/11 02:11:27;;;;;;;6.43;3.92;;;;;;;;;;5015397;28;20033;-25
2023/05/11 02:13:55;;;;;;;4.35;4.00;;;;;;;;;;5015031;28;20034;-25
2023/05/11 02:16:21;;;;;;;7.78;4.45;;;;;;;;;;5015324;28;20437;-25
2023/05/11 02:18:48;;;;;;;5.22;4.03;;;;;;;;;;5015028;28;20453;-25
2023/05/11 02:21:15;;;;;;;8.43;3.33;;;;;;;;;;5014992;28;20084;-25
2023/05/11 02:23:41;;;;;;;3.83;3.42;;;;;;;;;;5014439;28;20033;-25
2023/05/11 02:26:08;;;;;;;5.72;4.05;;;;;;;;;;5014459;28;20060;-25
2023/05/11 02:28:34;;;;;;;5.07;3.78;;;;;;;;;;5015187;28;20093;-25
2023/05/11 02:31:04;;;;;;;4.30;3.95;;;;;;;;;;5014830;28;20026;-25
2023/05/11 02:33:32;;;;;;;3.67;3.38;;;;;;;;;;5014654;28;20026;-25
2023/05/11 02:35:58;;;;;;;3.88;3.60;;;;;;;;;;5014780;28;20105;-25
2023/05/11 02:38:27;;;;;;;4.25;3.88;;;;;;;;;;5015056;28;20104;-25
2023/05/11 02:40:55;;;;;;;3.20;2.90;;;;;;;;;;5015028;28;20030;-25
2023/05/11 02:43:24;;;;;;;5.43;3.75;;;;;;;;;;5015223;28;20026;-25
2023/05/11 02:45:52;;;;;;;3.92;3.63;;;;;;;;;;5015280;28;20057;-25
2023/05/11 02:48:24;;;;;;;4.18;3.40;;;;;;;;;;5014972;28;20414;-25
2023/05/11 02:50:52;;;;;;;4.50;3.17;;;;;;;;;;5014733;28;20037;-25
2023/05/11 02:53:18;;;;;;;4.82;3.65;;;;;;;;;;5014775;28;20096;-25
2023/05/11 02:55:44;;;;;;;4.53;3.58;;;;;;;;;;5015125;28;20411;-25
2023/05/11 02:58:10;;;;;;;4.07;3.78;;;;;;;;;;5014894;28;20389;-27
2023/05/11 03:00:38;;;;;;;3.50;3.08;;;;;;;;;;5014633;28;20022;-25
2023/05/11 03:03:04;;;;;;;5.15;3.28;;;;;;;;;;4993760;28;20042;-25
2023/05/11 03:05:30;;;;;;;7.90;3.83;;;;;;;;;;4995019;28;20026;-25
2023/05/11 03:07:57;;;;;;;4.40;3.80;;;;;;;;;;4994962;28;20091;-25
2023/05/11 03:10:25;;;;;;;4.05;3.60;;;;;;;;;;4995200;28;20432;-25
2023/05/11 03:12:51;;;;;;;3.92;3.40;;;;;;;;;;4994812;28;20045;-25
2023/05/11 03:15:17;;;;;;;7.45;4.38;;;;;;;;;;4994810;28;20031;-25
2023/05/11 03:17:43;;;;;;;4.35;3.78;;;;;;;;;;4994876;28;20149;-25
2023/05/11 03:20:10;;;;;;;4.10;3.80;;;;;;;;;;4995119;28;20042;-25
2023/05/11 03:22:37;;;;;;;3.55;3.25;;;;;;;;;;4993928;28;20446;-25
2023/05/11 03:25:04;;;;;;;3.78;3.45;;;;;;;;;;4994777;28;20042;-25
2023/05/11 03:27:31;;;;;;;4.70;3.50;;;;;;;;;;4995051;28;20358;-25
2023/05/11 03:29:58;;;;;;;4.72;3.88;;;;;;;;;;4994797;28;20030;-25
2023/05/11 03:32:24;;;;;;;5.15;3.67;;;;;;;;;;4994695;28;20046;-25
2023/05/11 03:34:51;;;;;;;3.75;3.45;;;;;;;;;;4995443;28;20089;-25
2023/05/11 03:37:17;;;;;;;5.78;3.72;;;;;;;;;;4997751;28;20061;-25
2023/05/11 03:39:46;;;;;;;5.10;3.50;;;;;;;;;;4998261;28;20026;-25
2023/05/11 03:42:14;;;;;;;3.58;3.28;;;;;;;;;;4998169;28;20034;-25
2023/05/11 03:44:41;;;;;;;3.90;3.50;;;;;;;;;;4998701;28;20105;-25
2023/05/11 03:47:08;;;;;;;4.90;3.47;;;;;;;;;;4998085;28;20031;-25
2023/05/11 03:49:36;;;;;;;6.43;3.65;;;;;;;;;;4998133;28;20034;-25
2023/05/11 03:52:02;;;;;;;9.50;3.85;;;;;;;;;;4998124;28;20026;-25
2023/05/11 03:54:28;;;;;;;4.10;3.17;;;;;;;;;;4997873;28;20034;-25
2023/05/11 03:56:55;;;;;;;3.65;3.33;;;;;;;;;;4997928;28;20043;-26
2023/05/11 03:59:22;;;;;;;4.03;3.35;;;;;;;;;;4997806;28;20405;-25
2023/05/11 04:01:51;;;;;;;4.88;3.47;;;;;;;;;;4997616;28;20026;-27
2023/05/11 04:04:18;;;;;;;3.70;3.28;;;;;;;;;;5015337;28;20065;-27
2023/05/11 04:06:44;;;;;;;4.65;3.03;;;;;;;;;;5017376;28;20026;-27
2023/05/11 04:09:10;;;;;;;3.55;3.25;;;;;;;;;;5017282;28;20030;-26
2023/05/11 04:11:39;;;;;;;5.20;3.58;;;;;;;;;;5017399;28;20026;-26
2023/05/11 04:14:06;;;;;;;3.65;3.25;;;;;;;;;;4999521;28;20450;-26
2023/05/11 04:16:32;;;;;;;3.60;3.30;;;;;;;;;;5017080;28;20030;-26
2023/05/11 04:18:58;;;;;;;3.78;2.90;;;;;;;;;;5016966;28;20075;-27
2023/05/11 04:21:24;;;;;;;3.35;3.05;;;;;;;;;;5016947;28;20476;-27
2023/05/11 04:23:50;;;;;;;6.38;3.63;;;;;;;;;;5016774;28;20037;-27
2023/05/11 04:26:16;;;;;;;5.38;3.63;;;;;;;;;;5016795;28;20029;-26
2023/05/11 04:28:42;;;;;;;3.85;3.55;;;;;;;;;;5017010;28;20053;-26
2023/05/11 04:31:09;;;;;;;4.05;3.30;;;;;;;;;;5017173;28;20098;-27
2023/05/11 04:33:35;;;;;;;3.30;2.80;;;;;;;;;;5016570;28;20026;-27
2023/05/11 04:36:01;;;;;;;4.63;3.25;;;;;;;;;;5016595;28;20022;-27
2023/05/11 04:38:27;;;;;;;4.28;3.53;;;;;;;;;;5017395;28;20026;-26
2023/05/11 04:40:54;;;;;;;4.55;2.97;;;;;;;;;;5016552;28;20022;-26
2023/05/11 04:43:21;;;;;;;4.60;3.22;;;;;;;;;;5016470;28;20038;-26
2023/05/11 04:45:48;;;;;;;4.75;3.28;;;;;;;;;;5016358;28;20109;-24
2023/05/11 04:48:15;;;;;;;3.60;3.05;;;;;;;;;;4998029;28;20034;-24
2023/05/11 04:50:41;;;;;;;5.28;3.45;;;;;;;;;;5016517;28;20025;-31
2023/05/11 04:53:08;;;;;;;3.97;2.78;;;;;;;;;;5016190;28;20118;-27
2023/05/11 04:55:34;;;;;;;5.35;3.53;;;;;;;;;;5016182;28;20040;-24
2023/05/11 04:58:00;;;;;;;3.55;3.25;;;;;;;;;;5016454;28;20037;-24
2023/05/11 05:00:26;;;;;;;3.53;3.20;;;;;;;;;;5016642;28;20084;-24
2023/05/11 05:02:52;;;;;;;4.43;3.42;;;;;;;;;;5015901;28;20038;-24
2023/05/11 05:05:18;;;;;;;3.42;3.10;;;;;;;;;;5015995;28;20087;-25
2023/05/11 05:07:45;;;;;;;2.92;2.70;;;;;;;;;;5016581;28;20026;-24
2023/05/11 05:10:11;;;;;;;5.10;3.40;;;;;;;;;;5015739;28;20026;-27
2023/05/11 05:12:38;;;;;;;4.38;2.95;;;;;;;;;;5015938;28;20052;-25
2023/05/11 05:15:04;;;;;;;4.00;3.22;;;;;;;;;;5015741;28;20044;-24
2023/05/11 05:17:31;;;;;;;3.70;3.28;;;;;;;;;;5015731;28;20018;-25
2023/05/11 05:19:57;;;;;;;4.57;3.35;;;;;;;;;;5016151;28;20026;-25
2023/05/11 05:22:24;;;;;;;3.30;3.00;;;;;;;;;;5015491;28;20065;-24
2023/05/11 05:24:50;;;;;;;5.25;3.35;;;;;;;;;;4998543;28;20044;-25
2023/05/11 05:27:16;;;;;;;4.18;3.45;;;;;;;;;;5015588;28;20121;-25
2023/05/11 05:29:42;;;;;;;4.72;3.60;;;;;;;;;;5016170;28;20030;-25
2023/05/11 05:32:09;;;;;;;7.00;3.47;;;;;;;;;;5015631;28;20068;-24
2023/05/11 05:34:35;;;;;;;3.33;3.00;;;;;;;;;;5015393;28;20030;-25
2023/05/11 05:37:01;;;;;;;4.68;4.03;;;;;;;;;;5016251;28;20033;-26
2023/05/11 05:39:27;;;;;;;5.38;3.05;;;;;;;;;;5016061;28;20364;-26
2023/05/11 05:41:53;;;;;;;6.35;4.97;;;;;;;;;;5015345;28;20054;-26
2023/05/11 05:44:19;;;;;;;6.60;3.70;;;;;;;;;;5015132;28;20090;-26
2023/05/11 05:46:45;;;;;;;3.78;3.47;;;;;;;;;;5015050;28;20091;-26
2023/05/11 05:49:12;;;;;;;3.85;3.25;;;;;;;;;;5015383;28;20445;-26
2023/05/11 05:51:38;;;;;;;3.90;3.22;;;;;;;;;;5015175;28;20041;-26
2023/05/11 05:54:04;;;;;;;3.55;3.25;;;;;;;;;;5015033;28;20025;-26
2023/05/11 05:56:31;;;;;;;6.75;3.63;;;;;;;;;;4998124;28;20052;-26
2023/05/11 05:58:57;;;;;;;7.00;3.95;;;;;;;;;;5014578;28;20044;-25
2023/05/11 06:03:59;;;;;;;3.80;2.92;;;;;;;;;;5055694;22;20149;-26
2023/05/11 06:06:26;;;;;;;5.82;3.28;;;;;;;;;;4995493;28;20026;-25
2023/05/11 06:08:52;;;;;;;4.63;3.30;;;;;;;;;;4995260;28;20101;-29
2023/05/11 06:11:18;;;;;;;6.07;3.20;;;;;;;;;;4977934;28;20461;-27
2023/05/11 06:13:44;;;;;;;4.25;3.83;;;;;;;;;;4994815;28;20042;-28
2023/05/11 06:16:10;;;;;;;4.18;3.28;;;;;;;;;;4994912;28;20441;-25
2023/05/11 06:18:36;;;;;;;3.50;3.20;;;;;;;;;;4977733;28;20125;-28
2023/05/11 06:21:03;;;;;;;4.68;3.65;;;;;;;;;;4995028;28;20034;-26
2023/05/11 06:23:29;;;;;;;3.08;2.78;;;;;;;;;;4995164;28;20022;-26
2023/05/11 06:25:55;;;;;;;5.38;2.95;;;;;;;;;;4995278;28;20476;-28
2023/05/11 06:28:23;;;;;;;5.55;3.53;;;;;;;;;;4995437;28;20022;-27
2023/05/11 06:30:49;;;;;;;4.32;3.75;;;;;;;;;;4977967;28;20073;-25
2023/05/11 06:33:15;;;;;;;4.78;3.35;;;;;;;;;;4995221;28;20395;-28
2023/05/11 06:35:41;;;;;;;5.07;4.57;;;;;;;;;;4977741;28;20042;-28
2023/05/11 06:38:08;;;;;;;3.47;3.20;;;;;;;;;;4977804;28;20026;-28
2023/05/11 06:40:34;;;;;;;4.30;3.40;;;;;;;;;;4994890;28;20033;-24
2023/05/11 06:43:00;;;;;;;3.17;2.88;;;;;;;;;;4994721;28;20039;-27
2023/05/11 06:45:26;;;;;;;8.88;3.58;;;;;;;;;;4994706;28;20031;-28
2023/05/11 06:47:52;;;;;;;7.72;3.88;;;;;;;;;;4994717;28;20114;-29
2023/05/11 06:50:18;;;;;;;9.40;3.70;;;;;;;;;;4994916;28;20109;-28
2023/05/11 06:52:45;;;;;;;4.03;3.60;;;;;;;;;;4994936;28;20022;-23
2023/05/11 06:55:13;;;;;;;5.75;3.47;;;;;;;;;;4994605;28;20030;-28
2023/05/11 06:57:39;;;;;;;7.03;3.83;;;;;;;;;;4994549;28;20042;-23
2023/05/11 07:00:06;;;;;;;5.90;4.25;;;;;;;;;;4994842;28;20080;-26
2023/05/11 07:02:32;;;;;;;4.28;3.88;;;;;;;;;;4977453;28;20055;-28
2023/05/11 07:04:58;;;;;;;3.70;3.40;;;;;;;;;;4977457;28;20030;-25
2023/05/11 07:07:24;;;;;;;6.35;3.72;;;;;;;;;;4994718;28;20037;-28
2023/05/11 07:09:50;;;;;;;5.25;3.65;;;;;;;;;;4995094;28;20035;-24
2023/05/11 07:12:17;;;;;;;7.97;3.40;;;;;;;;;;4997862;28;20034;-27
2023/05/11 07:14:43;;;;;;;4.50;4.10;;;;;;;;;;4998585;28;20054;-26
2023/05/11 07:17:09;;;;;;;5.30;3.40;;;;;;;;;;4981319;28;20106;-24
2023/05/11 07:19:36;;;;;;;4.65;3.53;;;;;;;;;;4998546;28;20026;-25
2023/05/11 07:22:02;;;;;;;13.40;4.32;;;;;;;;;;4998293;28;20026;-27
2023/05/11 07:24:28;;;;;;;6.65;3.92;;;;;;;;;;4998064;28;20373;-25
2023/05/11 07:26:56;;;;;;;7.03;4.47;;;;;;;;;;4998122;28;20036;-28
2023/05/11 07:29:22;;;;;;;6.72;4.18;;;;;;;;;;4998520;28;20436;-27
2023/05/11 07:31:49;;;;;;;4.97;4.03;;;;;;;;;;4998144;28;20060;-25
2023/05/11 07:34:15;;;;;;;6.03;4.03;;;;;;;;;;4998342;28;20345;-27
2023/05/11 07:36:41;;;;;;;5.03;3.58;;;;;;;;;;4998404;28;20158;-27
2023/05/11 07:39:07;;;;;;;6.97;3.42;;;;;;;;;;4998579;28;20145;-26
2023/05/11 07:41:33;;;;;;;4.20;3.75;;;;;;;;;;4998125;28;20023;-28
2023/05/11 07:44:00;;;;;;;3.88;3.50;;;;;;;;;;4997763;28;20034;-24
2023/05/11 07:46:26;;;;;;;6.25;4.07;;;;;;;;;;4997781;28;20045;-27
2023/05/11 07:48:53;;;;;;;4.25;3.15;;;;;;;;;;4980465;28;20481;-27
2023/05/11 07:51:19;;;;;;;3.78;3.47;;;;;;;;;;4997654;28;20027;-25
2023/05/11 07:53:45;;;;;;;4.13;3.78;;;;;;;;;;4997552;28;20092;-27
2023/05/11 07:56:11;;;;;;;6.22;3.10;;;;;;;;;;4997758;28;20029;-27
2023/05/11 07:58:37;;;;;;;5.30;3.53;;;;;;;;;;4980381;28;20090;-28
2023/05/11 08:01:04;;;;;;;6.32;3.38;;;;;;;;;;4997489;28;20104;-26
2023/05/11 08:03:30;;;;;;;4.85;3.67;;;;;;;;;;4997104;28;20049;-27
2023/05/11 08:05:56;;;;;;;9.43;3.78;;;;;;;;;;4997581;28;20030;-27
2023/05/11 08:08:23;;;;;;;4.22;3.83;;;;;;;;;;4997228;28;20030;-27
2023/05/11 08:10:50;;;;;;;5.53;3.90;;;;;;;;;;4980207;28;20030;-28
2023/05/11 08:13:16;;;;;;;5.82;3.55;;;;;;;;;;4997578;28;20027;-25
2023/05/11 08:15:42;;;;;;;11.75;4.10;;;;;;;;;;4997272;28;20026;-26
2023/05/11 08:18:08;;;;;;;7.63;4.05;;;;;;;;;;4980100;28;20019;-24
2023/05/11 08:20:34;;;;;;;6.97;3.22;;;;;;;;;;4997133;28;20387;-24
2023/05/11 08:23:01;;;;;;;5.40;3.40;;;;;;;;;;4979954;28;20051;-28
2023/05/11 08:25:27;;;;;;;7.22;3.58;;;;;;;;;;4997881;28;20054;-27
2023/05/11 08:27:53;;;;;;;3.88;3.55;;;;;;;;;;4996933;28;20509;-24
2023/05/11 08:30:19;;;;;;;5.50;3.60;;;;;;;;;;4997043;28;20049;-28
2023/05/11 08:32:45;;;;;;;8.20;4.63;;;;;;;;;;4997029;28;20031;-26
2023/05/11 08:35:12;;;;;;;4.50;3.17;;;;;;;;;;4997406;28;20307;-27
2023/05/11 08:37:38;;;;;;;6.35;3.75;;;;;;;;;;4997371;28;20358;-27
2023/05/11 08:40:04;;;;;;;7.20;3.83;;;;;;;;;;4997520;28;20104;-24
2023/05/11 08:42:34;;;;;;;8.73;4.55;;;;;;;;;;4996733;28;20022;-25
2023/05/11 08:45:02;;;;;;;3.72;3.42;;;;;;;;;;4996855;28;20381;-26
2023/05/11 08:47:28;;;;;;;4.85;3.63;;;;;;;;;;4980070;28;20027;-27
2023/05/11 08:49:55;;;;;;;6.05;3.33;;;;;;;;;;4996765;28;20030;-27
2023/05/11 08:52:21;;;;;;;5.15;4.18;;;;;;;;;;4996553;28;20023;-27
2023/05/11 08:54:47;;;;;;;5.00;4.47;;;;;;;;;;4996595;28;20018;-28
2023/05/11 08:57:13;;;;;;;5.05;3.90;;;;;;;;;;4996527;28;20022;-24
2023/05/11 08:59:41;;;;;;;6.68;3.88;;;;;;;;;;4996363;28;20398;-33
2023/05/11 09:02:09;;;;;;;9.88;4.43;;;;;;;;;;4979449;28;20442;-24
2023/05/11 09:04:36;;;;;;;6.47;3.90;;;;;;;;;;4996224;28;20092;-28
2023/05/11 09:07:02;;;;;;;4.63;3.47;;;;;;;;;;4996085;28;20030;-27
2023/05/11 09:09:28;;;;;;;8.32;3.95;;;;;;;;;;4996143;28;20038;-25
2023/05/11 09:11:54;;;;;;;3.60;3.05;;;;;;;;;;4996181;28;20473;-24
2023/05/11 09:14:21;;;;;;;6.03;4.15;;;;;;;;;;4979167;28;20023;-28
2023/05/11 09:16:47;;;;;;;10.93;3.60;;;;;;;;;;4995936;28;20093;-26
2023/05/11 09:19:15;;;;;;;3.90;3.50;;;;;;;;;;4996148;28;20491;-24
2023/05/11 09:21:41;;;;;;;4.03;3.30;;;;;;;;;;4995875;28;20022;-29
2023/05/11 09:24:10;;;;;;;6.53;3.70;;;;;;;;;;4995783;28;20030;-26
2023/05/11 09:26:36;;;;;;;9.45;4.22;;;;;;;;;;4995839;28;20027;-26
2023/05/11 09:29:03;;;;;;;3.78;3.20;;;;;;;;;;4996102;28;20026;-28
2023/05/11 09:31:42;;;;;;;6.53;3.35;;;;;;;;;;4995831;28;20085;-26
2023/05/11 09:34:21;;;;;;;4.03;3.63;;;;;;;;;;4978330;28;20081;-26
2023/05/11 09:36:52;;;;;;;6.45;3.95;;;;;;;;;;4978658;28;20053;-28
2023/05/11 09:39:27;;;;;;;6.22;3.20;;;;;;;;;;4995780;28;20077;-26
2023/05/11 09:42:11;;;;;;;8.73;4.13;;;;;;;;;;4978652;28;20030;-27
2023/05/11 09:44:37;;;;;;;9.20;4.75;;;;;;;;;;4995787;28;20077;-26
2023/05/11 09:47:20;;;;;;;10.93;4.60;;;;;;;;;;4996021;28;20121;-27
2023/05/11 09:49:46;;;;;;;5.05;3.90;;;;;;;;;;4978400;28;20353;-27
2023/05/11 09:52:14;;;;;;;10.02;4.30;;;;;;;;;;4995324;28;20081;-27
2023/05/11 09:54:50;;;;;;;11.85;5.78;;;;;;;;;;4995070;28;20097;-26
2023/05/11 09:57:29;;;;;;;15.10;4.45;;;;;;;;;;4995514;28;20104;-24
2023/05/11 09:59:56;;;;;;;5.97;4.25;;;;;;;;;;4978126;28;20026;-28
2023/05/11 10:02:22;;;;;;;13.10;5.05;;;;;;;;;;4994978;28;20118;-28
2023/05/11 10:04:49;;;;;;;5.47;3.60;;;;;;;;;;4995393;28;20041;-27
2023/05/11 10:07:24;;;;;;;7.97;4.55;;;;;;;;;;4995047;28;20101;-28
2023/05/11 10:09:55;;;;;;;10.85;4.40;;;;;;;;;;4995400;28;20030;-25
2023/05/11 10:12:22;;;;;;;9.70;4.50;;;;;;;;;;4995128;28;20030;-28
2023/05/11 10:14:54;;;;;;;9.70;5.18;;;;;;;;;;4994960;28;20058;-26
2023/05/11 10:17:21;;;;;;;12.90;4.72;;;;;;;;;;4994618;28;20109;-24
2023/05/11 10:19:48;;;;;;;16.63;5.22;;;;;;;;;;4977377;28;20511;-25
2023/05/11 10:22:16;;;;;;;9.55;5.85;;;;;;;;;;4994839;28;20118;-25
2023/05/11 10:24:42;;;;;;;7.40;5.20;;;;;;;;;;4995035;28;20023;-26
2023/05/11 10:27:08;;;;;;;5.82;3.65;;;;;;;;;;4995010;28;20030;-23
2023/05/11 10:29:36;;;;;;;4.82;3.92;;;;;;;;;;4995085;28;20030;-25
2023/05/11 10:32:03;;;;;;;9.93;4.50;;;;;;;;;;4994727;28;20049;-30
2023/05/11 10:34:29;;;;;;;9.68;4.80;;;;;;;;;;4978093;28;20045;-27
2023/05/11 10:36:57;;;;;;;8.63;5.53;;;;;;;;;;4977683;28;20353;-25
2023/05/11 10:39:23;;;;;;;8.88;5.60;;;;;;;;;;4994763;28;20023;-25
2023/05/11 10:42:00;;;;;;;15.48;5.28;;;;;;;;;;4994791;28;20105;-23
2023/05/11 10:44:45;;;;;;;11.68;4.90;;;;;;;;;;4995025;28;20026;-24
2023/05/11 10:47:20;;;;;;;8.50;4.78;;;;;;;;;;4998390;28;20033;-26
2023/05/11 10:50:05;;;;;;;14.68;5.43;;;;;;;;;;4998611;28;20027;-24
2023/05/11 10:52:41;;;;;;;6.13;4.95;;;;;;;;;;4999322;28;20118;-26
2023/05/11 10:55:20;;;;;;;9.65;5.55;;;;;;;;;;4981268;28;20030;-29
2023/05/11 10:57:53;;;;;;;11.88;4.30;;;;;;;;;;4981159;28;20425;-26
2023/05/11 11:00:42;;;;;;;10.48;5.00;;;;;;;;;;4981251;28;20041;-28
2023/05/11 11:03:12;;;;;;;8.15;6.35;;;;;;;;;;4980751;28;20053;-24
2023/05/11 11:05:39;;;;;;;8.73;5.15;;;;;;;;;;4998419;28;20038;-28
2023/05/11 11:08:07;;;;;;;5.57;4.95;;;;;;;;;;4998477;28;20030;-27
2023/05/11 11:10:38;;;;;;;11.98;5.88;;;;;;;;;;4998454;28;20353;-26
2023/05/11 11:13:08;;;;;;;16.77;4.97;;;;;;;;;;4998339;28;20085;-28
2023/05/11 11:15:53;;;;;;;15.77;6.18;;;;;;;;;;4998316;28;20026;-25
2023/05/11 11:18:22;;;;;;;11.25;6.20;;;;;;;;;;4998260;28;20109;-28
2023/05/11 11:20:50;;;;;;;16.27;6.38;;;;;;;;;;4997954;28;20033;-27
2023/05/11 11:23:34;;;;;;;13.23;6.85;;;;;;;;;;4998056;28;20033;-29
2023/05/11 11:26:01;;;;;;;8.55;6.03;;;;;;;;;;4998213;28;20430;-23
2023/05/11 11:28:28;;;;;;;7.88;4.78;;;;;;;;;;4997914;28;20074;-24
2023/05/11 11:31:33;;;;;;;13.40;6.75;;;;;;;;;;4998094;28;20088;-26
2023/05/11 11:34:19;;;;;;;20.25;5.72;;;;;;;;;;4920089;29;20047;-27
2023/05/11 11:36:54;;;;;;;14.70;6.95;;;;;;;;;;4919304;29;20028;-26
2023/05/11 11:39:21;;;;;;;12.65;6.70;;;;;;;;;;4972700;28;20408;-28
2023/05/11 11:42:07;;;;;;;14.93;6.43;;;;;;;;;;4998260;28;20046;-26
2023/05/11 11:44:37;;;;;;;9.50;6.45;;;;;;;;;;4997928;28;20049;-27
2023/05/11 11:47:15;;;;;;;21.23;6.57;;;;;;;;;;4997903;28;20042;-27
2023/05/11 11:49:45;;;;;;;14.43;6.95;;;;;;;;;;4998147;28;20109;-28
2023/05/11 11:52:31;;;;;;;11.50;6.70;;;;;;;;;;4997596;28;20045;-26
2023/05/11 11:54:59;;;;;;;14.27;6.40;;;;;;;;;;4997811;28;20105;-26
2023/05/11 11:57:31;;;;;;;8.82;5.80;;;;;;;;;;4997292;28;20022;-26
2023/05/11 12:00:10;;;;;;;6.68;5.60;;;;;;;;;;4997304;28;20031;-25
2023/05/11 12:02:45;;;;;;;14.98;7.00;;;;;;;;;;4979877;28;20054;-24
2023/05/11 12:05:18;;;;;;;8.90;6.07;;;;;;;;;;4997235;28;20026;-27
2023/05/11 12:07:51;;;;;;;11.82;5.88;;;;;;;;;;4997740;28;20049;-28
2023/05/11 12:10:18;;;;;;;12.25;6.72;;;;;;;;;;4997262;28;20034;-27
2023/05/11 12:12:45;;;;;;;9.27;6.93;;;;;;;;;;4996974;28;20026;-28
2023/05/11 12:15:22;;;;;;;18.65;7.07;;;;;;;;;;4996927;28;20102;-26
2023/05/11 12:17:48;;;;;;;10.32;6.82;;;;;;;;;;4997254;28;20441;-28
2023/05/11 12:20:15;;;;;;;12.75;6.07;;;;;;;;;;4997478;28;20018;-24
2023/05/11 12:22:43;;;;;;;15.65;6.50;;;;;;;;;;4997302;28;20430;-30
2023/05/11 12:25:11;;;;;;;16.67;7.57;;;;;;;;;;4979913;28;20026;-24
2023/05/11 12:27:47;;;;;;;31.33;10.15;;;;;;;;;;4996976;28;20058;-25
2023/05/11 12:30:20;;;;;;;15.02;6.85;;;;;;;;;;4963847;28;20117;-26
2023/05/11 12:32:46;;;;;;;11.40;6.63;;;;;;;;;;4996744;28;20026;-26
2023/05/11 12:35:12;;;;;;;11.65;6.00;;;;;;;;;;4979672;28;20342;-23
2023/05/11 12:37:42;;;;;;;8.52;6.18;;;;;;;;;;4997117;28;20022;-24
2023/05/11 12:40:11;;;;;;;7.63;6.35;;;;;;;;;;4996823;28;20018;-24
2023/05/11 12:42:37;;;;;;;11.13;6.22;;;;;;;;;;4996704;28;20445;-24
2023/05/11 12:45:07;;;;;;;7.53;6.18;;;;;;;;;;4996957;28;20049;-24
2023/05/11 12:47:34;;;;;;;11.23;6.25;;;;;;;;;;4979709;28;20045;-26
2023/05/11 12:50:01;;;;;;;10.13;6.55;;;;;;;;;;4997131;28;20405;-27
2023/05/11 12:52:27;;;;;;;11.45;5.82;;;;;;;;;;4996984;28;20026;-29
2023/05/11 12:54:57;;;;;;;15.02;7.70;;;;;;;;;;4996716;28;20053;-27
2023/05/11 12:57:25;;;;;;;11.35;6.25;;;;;;;;;;4979612;28;20055;-24
2023/05/11 13:00:11;;;;;;;11.57;6.50;;;;;;;;;;4996849;28;20030;-27
2023/05/11 13:02:54;;;;;;;8.60;5.82;;;;;;;;;;4996454;28;20042;-24
2023/05/11 13:05:24;;;;;;;8.52;6.15;;;;;;;;;;4980093;28;20045;-28
2023/05/11 13:07:58;;;;;;;10.50;6.20;;;;;;;;;;4996170;28;20027;-24
2023/05/11 13:10:25;;;;;;;8.60;6.45;;;;;;;;;;4996505;28;20041;-28
2023/05/11 13:12:52;;;;;;;10.15;5.93;;;;;;;;;;4996507;28;20355;-27
2023/05/11 13:15:19;;;;;;;12.00;6.45;;;;;;;;;;4979236;28;20026;-26
2023/05/11 13:17:45;;;;;;;12.15;6.47;;;;;;;;;;4996158;28;20022;-27
2023/05/11 13:20:26;;;;;;;10.02;6.78;;;;;;;;;;4978871;28;20092;-27
2023/05/11 13:23:12;;;;;;;10.13;6.40;;;;;;;;;;4996319;28;20061;-28
2023/05/11 13:25:44;;;;;;;7.82;5.88;;;;;;;;;;4996431;28;20050;-26
2023/05/11 13:28:11;;;;;;;11.18;6.53;;;;;;;;;;4996313;28;20096;-28
2023/05/11 13:30:37;;;;;;;20.05;7.55;;;;;;;;;;4996079;28;20126;-27
2023/05/11 13:33:03;;;;;;;12.18;5.45;;;;;;;;;;4995816;28;20472;-27
2023/05/11 13:35:29;;;;;;;13.57;6.50;;;;;;;;;;4978746;28;20026;-27
2023/05/11 13:37:56;;;;;;;8.13;5.95;;;;;;;;;;4978803;28;20037;-28
2023/05/11 13:40:23;;;;;;;7.15;5.82;;;;;;;;;;4996228;28;20029;-26
2023/05/11 13:42:49;;;;;;;17.00;7.45;;;;;;;;;;4995767;28;20038;-26
2023/05/11 13:45:15;;;;;;;8.68;6.90;;;;;;;;;;4962625;28;20104;-25
2023/05/11 13:47:41;;;;;;;16.90;7.88;;;;;;;;;;4995650;28;20477;-27
2023/05/11 13:50:08;;;;;;;27.98;7.90;;;;;;;;;;4996044;28;20034;-25
2023/05/11 13:52:34;;;;;;;18.65;7.35;;;;;;;;;;4995824;28;20386;-27
2023/05/11 13:55:00;;;;;;;12.05;6.13;;;;;;;;;;4978466;28;20045;-27
2023/05/11 13:57:28;;;;;;;16.08;6.63;;;;;;;;;;4995690;28;20058;-28
2023/05/11 13:59:54;;;;;;;8.10;5.78;;;;;;;;;;4978410;28;20022;-27
2023/05/11 14:02:20;;;;;;;11.10;6.57;;;;;;;;;;4995356;28;20018;-32
2023/05/11 14:04:47;;;;;;;12.02;5.93;;;;;;;;;;4995461;28;20069;-23
2023/05/11 14:07:14;;;;;;;7.57;5.95;;;;;;;;;;4995515;28;20173;-25
2023/05/11 14:09:42;;;;;;;9.50;6.13;;;;;;;;;;4995490;28;20032;-26
2023/05/11 14:12:08;;;;;;;14.07;7.45;;;;;;;;;;4995898;28;20350;-26
2023/05/11 14:14:35;;;;;;;12.32;6.50;;;;;;;;;;4978137;28;20041;-26
2023/05/11 14:17:01;;;;;;;9.73;6.68;;;;;;;;;;4995621;28;20033;-26
2023/05/11 14:19:27;;;;;;;6.95;6.28;;;;;;;;;;4995205;28;20053;-27
2023/05/11 14:21:53;;;;;;;12.77;8.15;;;;;;;;;;4995391;28;20030;-24
2023/05/11 14:24:20;;;;;;;16.25;6.13;;;;;;;;;;4995314;28;20110;-25
2023/05/11 14:26:46;;;;;;;12.30;6.20;;;;;;;;;;4995466;28;20054;-28
2023/05/11 14:29:12;;;;;;;10.40;6.22;;;;;;;;;;4995176;28;20030;-25
2023/05/11 14:31:38;;;;;;;20.27;6.82;;;;;;;;;;4995452;28;20030;-27
2023/05/11 14:34:04;;;;;;;11.68;6.47;;;;;;;;;;4994992;28;20041;-27
2023/05/11 14:36:31;;;;;;;14.32;6.03;;;;;;;;;;4978022;28;20026;-25
2023/05/11 14:38:57;;;;;;;11.70;6.05;;;;;;;;;;4978161;28;20040;-27
2023/05/11 14:41:24;;;;;;;8.32;6.07;;;;;;;;;;4995315;28;20030;-24
2023/05/11 14:43:50;;;;;;;14.05;6.10;;;;;;;;;;4995191;28;20110;-24
2023/05/11 14:46:16;;;;;;;8.18;6.30;;;;;;;;;;4995053;28;20426;-24
2023/05/11 14:48:42;;;;;;;11.20;6.40;;;;;;;;;;4978023;28;20027;-28